createdAt,value
2017-12-19T00:00:20.925Z,35.88
2017-12-19T00:02:50.713Z,34.78
2017-12-19T00:05:19.501Z,35.38
2017-12-19T00:07:50.261Z,37.50
2017-12-19T00:10:19.185Z,40.22
2017-12-19T00:12:47.177Z,38.65
2017-12-19T00:15:17.233Z,38.97
2017-12-19T00:17:46.985Z,32.72
2017-12-19T00:20:18.877Z,34.92
2017-12-19T00:22:56.321Z,38.55
2017-12-19T00:25:24.345Z,33.88
2017-12-19T00:27:53.125Z,30.00
2017-12-19T00:30:23.860Z,33.45
2017-12-19T00:32:59.153Z,33.00
2017-12-19T00:35:31.145Z,29.95
2017-12-19T00:38:02.988Z,34.58
2017-12-19T00:40:38.354Z,35.80
2017-12-19T00:43:07.332Z,33.92
2017-12-19T00:45:35.357Z,35.17
2017-12-19T00:48:09.838Z,35.45
2017-12-19T00:50:37.861Z,34.05
2017-12-19T00:53:06.900Z,37.03
2017-12-19T00:55:40.973Z,34.40
2017-12-19T00:58:20.608Z,36.85
2017-12-19T01:00:51.576Z,36.65
2017-12-19T01:03:19.629Z,33.25
2017-12-19T01:05:50.925Z,38.67
2017-12-19T01:08:22.548Z,37.55
2017-12-19T01:10:50.589Z,38.17
2017-12-19T01:13:18.621Z,44.17
2017-12-19T01:16:00.108Z,34.85
2017-12-19T01:18:42.985Z,36.17
2017-12-19T01:21:14.345Z,37.03
2017-12-19T01:23:44.401Z,32.97
2017-12-19T01:26:14.385Z,37.10
2017-12-19T01:28:44.441Z,37.67
2017-12-19T01:31:13.373Z,33.75
2017-12-19T01:33:46.676Z,34.88
2017-12-19T01:36:18.235Z,33.47
2017-12-19T01:38:50.176Z,37.58
2017-12-19T01:41:23.669Z,36.00
2017-12-19T01:43:52.689Z,35.35
2017-12-19T01:46:26.980Z,33.60
2017-12-19T01:48:55.772Z,33.22
2017-12-19T01:51:23.780Z,32.95
2017-12-19T01:53:53.547Z,38.15
2017-12-19T01:56:27.960Z,38.00
2017-12-19T01:58:59.832Z,40.47
2017-12-19T02:01:31.512Z,37.60
2017-12-19T02:04:02.328Z,41.78
2017-12-19T02:06:32.400Z,39.72
2017-12-19T02:09:04.824Z,39.95
2017-12-19T02:11:32.860Z,43.55
2017-12-19T02:14:00.884Z,36.63
2017-12-19T02:16:34.159Z,35.75
2017-12-19T02:19:04.148Z,41.80
2017-12-19T02:21:33.148Z,40.95
2017-12-19T02:24:02.168Z,40.03
2017-12-19T02:26:30.184Z,38.22
2017-12-19T02:29:01.152Z,34.28
2017-12-19T02:31:29.945Z,35.97
2017-12-19T02:33:59.956Z,42.72
2017-12-19T02:36:33.064Z,39.50
2017-12-19T02:39:12.060Z,38.20
2017-12-19T02:41:40.096Z,35.05
2017-12-19T02:44:22.014Z,32.65
2017-12-19T02:46:51.976Z,33.53
2017-12-19T02:49:20.947Z,35.38
2017-12-19T02:51:59.639Z,37.03
2017-12-19T02:54:34.356Z,39.53
2017-12-19T02:57:04.325Z,37.92
2017-12-19T02:59:36.320Z,38.30
2017-12-19T03:02:12.608Z,40.83
2017-12-19T03:04:49.268Z,40.80
2017-12-19T03:07:21.279Z,43.97
2017-12-19T03:09:53.120Z,40.22
2017-12-19T03:12:22.132Z,37.38
2017-12-19T03:14:53.467Z,42.00
2017-12-19T03:17:21.484Z,40.70
2017-12-19T03:20:00.640Z,44.75
2017-12-19T03:22:35.359Z,37.22
2017-12-19T03:25:10.300Z,39.17
2017-12-19T03:27:40.227Z,39.83
2017-12-19T03:30:15.760Z,37.75
2017-12-19T03:32:49.587Z,42.25
2017-12-19T03:35:21.372Z,47.35
2017-12-19T03:37:57.777Z,37.05
2017-12-19T03:40:26.740Z,38.78
2017-12-19T03:43:02.212Z,37.47
2017-12-19T03:45:30.239Z,39.30
2017-12-19T03:48:05.656Z,39.42
2017-12-19T03:50:49.247Z,40.70
2017-12-19T03:53:22.379Z,37.70
2017-12-19T03:56:00.899Z,38.78
2017-12-19T03:58:31.932Z,42.88
2017-12-19T04:01:07.487Z,38.85
2017-12-19T04:03:36.492Z,36.78
2017-12-19T04:06:06.507Z,36.70
2017-12-19T04:08:34.531Z,43.03
2017-12-19T04:11:19.375Z,40.63
2017-12-19T04:13:59.344Z,36.85
2017-12-19T04:16:37.163Z,34.22
2017-12-19T04:19:19.615Z,39.55
2017-12-19T04:21:48.403Z,36.97
2017-12-19T04:24:21.358Z,39.65
2017-12-19T04:26:55.991Z,36.95
2017-12-19T04:29:24.011Z,42.10
2017-12-19T04:32:09.270Z,40.90
2017-12-19T04:34:38.207Z,41.05
2017-12-19T04:37:09.255Z,42.33
2017-12-19T04:39:49.683Z,40.65
2017-12-19T04:42:21.784Z,43.53
2017-12-19T04:44:54.431Z,34.88
2017-12-19T04:47:24.407Z,43.03
2017-12-19T04:49:55.107Z,42.55
2017-12-19T04:52:36.342Z,40.38
2017-12-19T04:55:11.183Z,41.28
2017-12-19T04:57:40.211Z,52.97
2017-12-19T05:00:08.267Z,51.83
2017-12-19T05:02:36.283Z,43.22
2017-12-19T05:05:08.330Z,42.28
2017-12-19T05:07:49.823Z,43.08
2017-12-19T05:10:18.615Z,42.62
2017-12-19T05:12:52.799Z,41.10
2017-12-19T05:15:20.818Z,38.15
2017-12-19T05:18:00.170Z,43.58
2017-12-19T05:20:29.209Z,46.80
2017-12-19T05:22:57.219Z,41.30
2017-12-19T05:25:27.175Z,44.00
2017-12-19T05:28:05.163Z,42.10
2017-12-19T05:30:42.970Z,41.30
2017-12-19T05:33:18.707Z,40.42
2017-12-19T05:35:46.720Z,40.17
2017-12-19T05:38:26.667Z,36.83
2017-12-19T05:40:58.403Z,44.28
2017-12-19T05:43:26.434Z,45.85
2017-12-19T05:46:06.691Z,42.95
2017-12-19T05:48:47.255Z,50.78
2017-12-19T05:51:17.203Z,45.20
2017-12-19T05:53:48.446Z,40.50
2017-12-19T05:56:20.110Z,44.03
2017-12-19T05:59:00.561Z,42.53
2017-12-19T06:01:33.750Z,44.53
2017-12-19T06:04:15.102Z,45.28
2017-12-19T06:06:44.031Z,39.53
2017-12-19T06:09:19.862Z,42.62
2017-12-19T06:11:51.018Z,48.10
2017-12-19T06:14:21.063Z,45.80
2017-12-19T06:16:54.427Z,41.70
2017-12-19T06:19:22.454Z,42.70
2017-12-19T06:22:04.439Z,42.95
2017-12-19T06:24:33.222Z,43.30
2017-12-19T06:27:05.562Z,53.25
2017-12-19T06:29:39.066Z,45.22
2017-12-19T06:32:09.066Z,44.00
2017-12-19T06:34:37.078Z,49.33
2017-12-19T06:37:09.554Z,44.63
2017-12-19T06:39:38.327Z,44.30
2017-12-19T06:42:10.259Z,43.90
2017-12-19T06:44:45.779Z,43.75
2017-12-19T06:47:19.352Z,42.47
2017-12-19T06:49:51.778Z,50.00
2017-12-19T06:52:25.378Z,46.00
2017-12-19T06:54:54.158Z,55.90
2017-12-19T06:57:23.158Z,50.20
2017-12-19T06:59:58.494Z,44.58
2017-12-19T07:02:32.386Z,52.50
2017-12-19T07:05:05.415Z,47.25
2017-12-19T07:07:34.386Z,47.35
2017-12-19T07:10:08.798Z,45.42
2017-12-19T07:12:41.986Z,47.80
2017-12-19T07:15:16.486Z,48.22
2017-12-19T07:17:50.010Z,43.20
2017-12-19T07:20:23.374Z,50.70
2017-12-19T07:22:51.389Z,43.80
2017-12-19T07:25:19.414Z,48.85
2017-12-19T07:27:47.450Z,43.00
2017-12-19T07:30:16.238Z,42.97
2017-12-19T07:32:46.954Z,35.70
2017-12-19T07:35:14.958Z,41.55
2017-12-19T07:37:44.926Z,39.58
2017-12-19T07:40:13.950Z,43.87
2017-12-19T07:42:44.646Z,45.50
2017-12-19T07:45:12.670Z,40.42
2017-12-19T07:47:40.701Z,43.25
2017-12-19T07:50:18.454Z,46.22
2017-12-19T07:52:46.491Z,39.90
2017-12-19T07:55:14.490Z,39.70
2017-12-19T07:58:00.346Z,42.17
2017-12-19T08:00:30.022Z,42.80
2017-12-19T08:02:59.018Z,39.80
2017-12-19T08:05:34.564Z,41.70
2017-12-19T08:08:03.350Z,43.58
2017-12-19T08:10:31.354Z,42.62
2017-12-19T08:13:00.146Z,40.72
2017-12-19T08:15:39.410Z,45.53
2017-12-19T08:18:10.522Z,45.80
2017-12-19T08:20:52.709Z,44.92
2017-12-19T08:23:21.506Z,37.95
2017-12-19T08:25:53.730Z,41.58
2017-12-19T08:28:22.525Z,38.55
2017-12-19T08:30:55.154Z,42.35
2017-12-19T08:33:23.188Z,45.10
2017-12-19T08:36:03.382Z,42.97
2017-12-19T08:38:31.393Z,40.28
2017-12-19T08:40:59.398Z,41.37
2017-12-19T08:43:28.174Z,43.85
2017-12-19T08:45:57.090Z,44.88
2017-12-19T08:48:27.966Z,38.05
2017-12-19T08:51:03.810Z,39.13
2017-12-19T08:53:39.514Z,42.80
2017-12-19T08:56:08.334Z,38.97
2017-12-19T08:58:42.341Z,41.22
2017-12-19T09:01:16.053Z,42.67
2017-12-19T09:03:50.877Z,42.00
2017-12-19T09:06:19.806Z,38.55
2017-12-19T09:08:54.285Z,37.72
2017-12-19T09:11:22.305Z,39.00
2017-12-19T09:13:53.933Z,35.00
2017-12-19T09:16:21.941Z,39.33
2017-12-19T09:18:51.625Z,46.05
2017-12-19T09:21:19.641Z,36.10
2017-12-19T09:23:48.433Z,35.55
2017-12-19T09:26:16.441Z,39.28
2017-12-19T09:28:48.309Z,38.38
2017-12-19T09:31:18.221Z,37.67
2017-12-19T09:33:49.693Z,41.13
2017-12-19T09:36:21.428Z,38.80
2017-12-19T09:38:49.453Z,36.20
2017-12-19T09:41:17.469Z,40.88
2017-12-19T09:43:45.473Z,34.70
2017-12-19T09:46:14.273Z,31.40
2017-12-19T09:48:43.037Z,36.33
2017-12-19T09:51:11.811Z,29.15
2017-12-19T09:53:39.836Z,37.50
2017-12-19T09:56:07.843Z,37.85
2017-12-19T09:58:35.853Z,36.95
2017-12-19T10:01:03.885Z,34.83
2017-12-19T10:03:35.325Z,35.72
2017-12-19T10:06:10.953Z,35.67
2017-12-19T10:08:40.885Z,35.03
2017-12-19T10:11:10.917Z,31.20
2017-12-19T10:13:38.925Z,32.63
2017-12-19T10:16:06.933Z,33.30
2017-12-19T10:18:47.061Z,36.42
2017-12-19T10:21:21.993Z,30.45
2017-12-19T10:23:54.113Z,34.88
2017-12-19T10:29:28.993Z,30.33
2017-12-19T10:31:57.005Z,33.65
2017-12-19T10:34:26.720Z,29.55
2017-12-19T10:36:55.717Z,32.25
2017-12-19T10:39:24.493Z,33.65
2017-12-19T10:41:53.169Z,32.00
2017-12-19T10:44:23.105Z,31.92
2017-12-19T10:47:02.088Z,28.48
2017-12-19T10:49:37.857Z,34.63
2017-12-19T10:52:07.785Z,32.80
2017-12-19T10:54:39.453Z,31.90
2017-12-19T10:57:21.676Z,32.92
2017-12-19T11:00:02.668Z,35.13
2017-12-19T11:02:30.696Z,34.42
2017-12-19T11:05:15.197Z,29.50
2017-12-19T11:07:43.209Z,34.33
2017-12-19T11:10:12.017Z,32.95
2017-12-19T11:12:41.004Z,29.42
2017-12-19T11:15:16.408Z,35.42
2017-12-19T11:17:44.428Z,33.25
2017-12-19T11:20:16.884Z,34.53
2017-12-19T11:22:44.913Z,31.67
2017-12-19T11:25:12.932Z,30.08
2017-12-19T11:27:55.668Z,34.17
2017-12-19T11:30:25.444Z,27.65
2017-12-19T11:32:54.424Z,31.35
2017-12-19T11:35:24.357Z,28.92
2017-12-19T11:38:06.580Z,29.40
2017-12-19T11:40:43.524Z,29.65
2017-12-19T11:43:14.772Z,26.15
2017-12-19T11:45:53.168Z,26.87
2017-12-19T11:48:23.108Z,24.02
2017-12-19T11:50:52.092Z,29.80
2017-12-19T11:53:34.456Z,29.55
2017-12-19T11:56:06.557Z,31.70
2017-12-19T11:58:38.236Z,27.90
2017-12-19T12:01:11.820Z,28.85
2017-12-19T12:03:39.844Z,27.65
2017-12-19T12:06:07.860Z,27.48
2017-12-19T12:08:41.648Z,27.10
2017-12-19T12:11:12.694Z,26.75
2017-12-19T12:13:45.390Z,26.75
2017-12-19T12:16:15.400Z,29.37
2017-12-19T12:18:53.587Z,26.37
2017-12-19T12:21:26.508Z,32.97
2017-12-19T12:23:55.507Z,29.08
2017-12-19T12:26:30.896Z,29.05
2017-12-19T12:28:58.912Z,29.87
2017-12-19T12:31:27.896Z,28.12
2017-12-19T12:33:56.668Z,27.95
2017-12-19T12:36:24.696Z,31.87
2017-12-19T12:38:52.704Z,31.48
2017-12-19T12:41:31.309Z,29.58
2017-12-19T12:44:05.104Z,29.33
2017-12-19T12:46:35.068Z,32.00
2017-12-19T12:49:05.061Z,60.92
2017-12-19T12:51:38.888Z,101.97
2017-12-19T12:54:13.265Z,32.05
2017-12-19T12:56:41.345Z,32.03
2017-12-19T12:59:11.278Z,99.78
2017-12-19T13:01:46.392Z,51.53
2017-12-19T13:04:16.318Z,59.15
2017-12-19T13:06:54.304Z,37.05
2017-12-19T13:09:26.288Z,60.10
2017-12-19T13:11:57.949Z,30.10
2017-12-19T13:14:25.967Z,27.65
2017-12-19T13:16:53.980Z,24.98
2017-12-19T13:19:27.768Z,33.67
2017-12-19T13:21:55.795Z,28.83
2017-12-19T13:24:24.567Z,25.55
2017-12-19T13:26:52.600Z,26.05
2017-12-19T13:29:22.536Z,27.75
2017-12-19T13:31:50.544Z,27.83
2017-12-19T13:34:26.336Z,26.67
2017-12-19T13:36:54.352Z,35.65
2017-12-19T13:39:23.132Z,29.92
2017-12-19T13:41:53.140Z,26.05
2017-12-19T13:44:24.580Z,31.17
2017-12-19T13:46:56.443Z,30.10
2017-12-19T13:49:24.460Z,31.40
2017-12-19T13:51:54.408Z,29.98
2017-12-19T13:54:24.416Z,32.75
2017-12-19T13:56:55.060Z,25.33
2017-12-19T13:59:29.871Z,30.40
2017-12-19T14:02:15.303Z,33.95
2017-12-19T14:04:54.583Z,30.73
2017-12-19T14:07:24.508Z,29.15
2017-12-19T14:09:52.515Z,34.55
2017-12-19T14:12:21.479Z,35.30
2017-12-19T14:15:08.963Z,29.27
2017-12-19T14:17:36.988Z,28.38
2017-12-19T14:20:05.006Z,26.98
2017-12-19T14:22:33.943Z,27.65
2017-12-19T14:25:14.559Z,25.50
2017-12-19T14:27:42.571Z,26.95
2017-12-19T14:30:14.535Z,27.00
2017-12-19T14:32:42.543Z,30.25
2017-12-19T14:35:11.336Z,27.90
2017-12-19T14:37:46.809Z,27.58
2017-12-19T14:40:14.827Z,29.77
2017-12-19T14:42:42.839Z,34.95
2017-12-19T14:45:12.850Z,33.88
2017-12-19T14:47:46.766Z,29.35
2017-12-19T14:50:15.703Z,32.55
2017-12-19T14:52:45.695Z,35.78
2017-12-19T14:55:15.736Z,31.48
2017-12-19T14:57:44.711Z,33.78
2017-12-19T15:00:12.731Z,30.80
2017-12-19T15:02:40.759Z,28.70
2017-12-19T15:05:08.826Z,33.17
2017-12-19T15:07:37.807Z,32.92
2017-12-19T15:10:10.619Z,35.10
2017-12-19T15:12:43.285Z,36.92
2017-12-19T15:15:17.707Z,35.58
2017-12-19T15:17:50.775Z,35.17
2017-12-19T15:20:23.579Z,41.00
2017-12-19T15:23:05.747Z,38.70
2017-12-19T15:25:40.675Z,40.75
2017-12-19T15:28:14.398Z,34.95
2017-12-19T15:31:01.471Z,37.15
2017-12-19T15:33:31.423Z,37.63
2017-12-19T15:35:59.431Z,36.45
2017-12-19T15:38:29.211Z,43.13
2017-12-19T15:41:04.119Z,33.30
2017-12-19T15:43:35.291Z,32.85
2017-12-19T15:46:14.579Z,33.38
2017-12-19T15:48:43.615Z,38.17
2017-12-19T15:51:15.359Z,38.97
2017-12-19T15:53:45.395Z,36.90
2017-12-19T15:56:14.363Z,33.25
2017-12-19T15:58:43.363Z,36.63
2017-12-19T16:01:15.761Z,36.78
2017-12-19T16:03:50.367Z,34.45
2017-12-19T16:06:21.623Z,37.35
2017-12-19T16:08:51.531Z,33.80
2017-12-19T16:11:27.663Z,33.38
2017-12-19T16:14:00.807Z,35.17
2017-12-19T16:16:29.607Z,35.45
2017-12-19T16:18:57.607Z,42.25
2017-12-19T16:21:25.830Z,40.63
2017-12-19T16:23:54.783Z,39.33
2017-12-19T16:26:24.790Z,45.88
2017-12-19T16:28:53.819Z,40.08
2017-12-19T16:31:23.818Z,39.72
2017-12-19T16:33:55.191Z,39.30
2017-12-19T16:36:28.043Z,37.72
2017-12-19T16:38:56.073Z,37.30
2017-12-19T16:41:24.078Z,37.63
2017-12-19T16:43:53.010Z,35.08
2017-12-19T16:46:21.791Z,37.58
2017-12-19T16:48:50.559Z,33.88
2017-12-19T16:51:18.571Z,36.33
2017-12-19T16:53:48.542Z,39.78
2017-12-19T16:56:16.546Z,40.22
2017-12-19T16:58:44.567Z,37.17
2017-12-19T17:01:12.589Z,40.20
2017-12-19T17:03:41.494Z,40.10
2017-12-19T17:06:09.495Z,41.22
2017-12-19T17:08:44.942Z,44.60
2017-12-19T17:11:14.638Z,39.47
2017-12-19T17:13:43.645Z,38.67
2017-12-19T17:16:12.630Z,38.20
2017-12-19T17:18:45.418Z,43.75
2017-12-19T17:21:14.633Z,43.72
2017-12-19T17:23:42.606Z,47.15
2017-12-19T17:26:14.970Z,43.72
2017-12-19T17:28:46.506Z,46.17
2017-12-19T17:31:14.505Z,50.67
2017-12-19T17:33:43.290Z,49.28
2017-12-19T17:36:12.067Z,43.42
2017-12-19T17:38:40.092Z,41.17
2017-12-19T17:41:13.322Z,49.17
2017-12-19T17:43:41.334Z,62.72
2017-12-19T17:46:09.358Z,56.55
2017-12-19T17:48:37.382Z,54.50
2017-12-19T17:51:05.406Z,46.50
2017-12-19T17:53:34.386Z,64.85
2017-12-19T17:56:02.426Z,56.00
2017-12-19T17:58:31.222Z,50.88
2017-12-19T18:01:00.133Z,49.47
2017-12-19T18:03:28.154Z,61.22
2017-12-19T18:05:57.094Z,66.22
2017-12-19T18:08:25.122Z,52.10
2017-12-19T18:10:57.634Z,47.72
2017-12-19T18:13:26.562Z,53.72
2017-12-19T18:15:55.366Z,52.00
2017-12-19T18:18:23.423Z,47.55
2017-12-19T18:20:53.101Z,50.03
2017-12-19T18:23:21.142Z,52.75
2017-12-19T18:25:49.182Z,49.15
2017-12-19T18:28:19.144Z,48.10
2017-12-19T18:30:47.646Z,48.30
2017-12-19T18:33:15.678Z,54.95
2017-12-19T18:35:50.614Z,47.28
2017-12-19T18:38:18.629Z,53.20
2017-12-19T18:40:51.250Z,46.95
2017-12-19T18:43:19.282Z,46.17
2017-12-19T18:45:48.086Z,51.40
2017-12-19T18:48:16.133Z,49.08
2017-12-19T18:50:45.092Z,50.50
2017-12-19T18:53:13.157Z,49.85
2017-12-19T18:55:42.153Z,43.40
2017-12-19T18:58:10.277Z,51.35
2017-12-19T19:00:38.245Z,46.35
2017-12-19T19:03:07.034Z,49.67
2017-12-19T19:05:35.086Z,49.67
2017-12-19T19:08:03.890Z,46.10
2017-12-19T19:10:31.926Z,52.90
2017-12-19T19:12:59.949Z,49.67
2017-12-19T19:15:33.029Z,44.47
2017-12-19T19:18:01.141Z,51.22
2017-12-19T19:20:32.413Z,44.22
2017-12-19T19:23:00.449Z,49.65
2017-12-19T19:25:29.509Z,48.67
2017-12-19T19:27:57.497Z,40.40
2017-12-19T19:30:25.537Z,41.63
2017-12-19T19:32:53.577Z,50.83
2017-12-19T19:35:24.950Z,51.58
2017-12-19T19:37:58.745Z,42.65
2017-12-19T19:40:27.569Z,44.45
2017-12-19T19:42:56.485Z,44.03
2017-12-19T19:45:24.520Z,46.85
2017-12-19T19:47:52.573Z,43.65
2017-12-19T19:50:20.617Z,44.10
2017-12-19T19:52:48.645Z,51.10
2017-12-19T19:55:18.617Z,50.20
2017-12-19T19:57:47.408Z,47.22
2017-12-19T20:00:15.445Z,42.50
2017-12-19T20:02:43.487Z,46.67
2017-12-19T20:05:11.505Z,44.15
2017-12-19T20:07:39.537Z,48.55
2017-12-19T20:10:09.488Z,59.15
2017-12-19T20:12:37.505Z,46.72
2017-12-19T20:15:11.533Z,60.20
2017-12-19T20:17:39.545Z,46.28
2017-12-19T20:20:11.316Z,42.25
2017-12-19T20:22:41.081Z,50.08
2017-12-19T20:25:09.989Z,49.70
2017-12-19T20:27:38.017Z,49.47
2017-12-19T20:30:08.016Z,46.90
2017-12-19T20:32:36.959Z,47.85
2017-12-19T20:35:08.660Z,48.87
2017-12-19T20:37:39.337Z,48.20
2017-12-19T20:40:07.364Z,52.97
2017-12-19T20:42:37.361Z,47.22
2017-12-19T20:45:08.373Z,50.75
2017-12-19T20:47:36.420Z,45.05
2017-12-19T20:50:04.444Z,58.70
2017-12-19T20:52:34.123Z,60.55
2017-12-19T20:55:02.149Z,48.75
2017-12-19T20:57:30.196Z,62.72
2017-12-19T21:00:00.924Z,58.33
2017-12-19T21:02:29.736Z,52.67
2017-12-19T21:04:59.720Z,50.33
2017-12-19T21:07:29.544Z,52.05
2017-12-19T21:09:59.276Z,49.17
2017-12-19T21:12:29.036Z,47.08
2017-12-19T21:14:57.052Z,52.55
2017-12-19T21:17:26.033Z,51.58
2017-12-19T21:19:54.092Z,53.13
2017-12-19T21:22:23.895Z,46.17
2017-12-19T21:24:52.695Z,57.22
2017-12-19T21:27:23.524Z,51.90
2017-12-19T21:29:52.304Z,55.20
2017-12-19T21:32:23.044Z,60.78
2017-12-19T21:34:51.826Z,55.55
2017-12-19T21:37:19.854Z,51.05
2017-12-19T21:39:48.916Z,58.78
2017-12-19T21:42:17.708Z,52.90
2017-12-19T21:44:46.624Z,60.30
2017-12-19T21:47:15.644Z,68.25
2017-12-19T21:49:45.636Z,47.10
2017-12-19T21:52:13.661Z,45.45
2017-12-19T21:54:43.653Z,46.47
2017-12-19T21:57:12.484Z,48.22
2017-12-19T21:59:44.208Z,53.38
2017-12-19T22:02:12.984Z,55.75
2017-12-19T22:04:41.964Z,53.85
2017-12-19T22:07:10.875Z,50.30
2017-12-19T22:09:43.228Z,48.03
2017-12-19T22:12:11.260Z,51.92
2017-12-19T22:14:39.280Z,47.75
2017-12-19T22:17:12.252Z,54.22
2017-12-19T22:19:42.276Z,52.47
2017-12-19T22:22:11.184Z,54.90
2017-12-19T22:24:40.555Z,53.15
2017-12-19T22:27:08.571Z,58.25
2017-12-19T22:29:37.524Z,49.70
2017-12-19T22:32:10.671Z,53.63
2017-12-19T22:34:39.596Z,48.65
2017-12-19T22:37:11.379Z,51.33
2017-12-19T22:39:40.166Z,46.78
2017-12-19T22:42:08.952Z,44.40
2017-12-19T22:44:37.744Z,54.40
2017-12-19T22:47:06.539Z,53.97
2017-12-19T22:49:35.344Z,52.08
2017-12-19T22:52:05.340Z,46.75
2017-12-19T22:54:35.115Z,61.03
2017-12-19T22:57:03.131Z,52.05
2017-12-19T22:59:31.920Z,60.42
2017-12-19T23:01:59.939Z,61.25
2017-12-19T23:04:27.967Z,55.72
2017-12-19T23:06:59.595Z,52.92
2017-12-19T23:09:32.252Z,55.50
2017-12-19T23:12:01.251Z,54.10
2017-12-19T23:14:30.231Z,50.45
2017-12-19T23:16:59.155Z,59.50
2017-12-19T23:19:29.859Z,48.22
2017-12-19T23:21:58.771Z,62.20
2017-12-19T23:24:27.555Z,50.30
2017-12-19T23:27:00.232Z,52.42
2017-12-19T23:29:29.008Z,52.78
2017-12-19T23:31:57.023Z,56.25
2017-12-19T23:34:25.059Z,51.50
2017-12-19T23:36:54.028Z,58.75
2017-12-19T23:39:22.943Z,48.53
2017-12-19T23:41:51.767Z,62.22
2017-12-19T23:44:20.679Z,57.67
2017-12-19T23:46:50.423Z,51.22
2017-12-19T23:49:20.424Z,51.10
2017-12-19T23:51:48.436Z,49.28
2017-12-19T23:54:25.187Z,47.62
2017-12-19T23:56:57.215Z,51.55
2017-12-19T23:59:26.257Z,45.92
